Time;durP1;ratioP1;P1;durP2;ratioP2;P2;SDS_P1;SDS_P2;PMS_P1;PMS_P2;Temp;Humidity;BMP_temperature;BMP_pressure;BME280_temperature;BME280_humidity;BME280_pressure;Samples;Min_cycle;Max_cycle;Signal;HPM_P1;HPM_P2
2022/08/04 00:01:28;;;;;;;12.65;8.30;;;22.20;99.90;;;;;;4992770;28;20713;-84
2022/08/04 00:04:26;;;;;;;9.65;8.73;;;21.90;99.90;;;;;;4983942;28;20385;-85
2022/08/04 00:07:18;;;;;;;9.15;8.30;;;22.00;99.90;;;;;;4986318;28;20230;-85
2022/08/04 00:10:28;;;;;;;10.02;7.63;;;22.10;99.90;;;;;;4984532;28;20265;-84
2022/08/04 00:13:23;;;;;;;13.18;8.32;;;22.10;99.90;;;;;;4996614;28;20218;-84
2022/08/04 00:16:14;;;;;;;12.35;8.30;;;22.10;99.90;;;;;;4979502;28;20741;-84
2022/08/04 00:19:05;;;;;;;10.88;8.38;;;22.10;99.90;;;;;;4976256;28;20219;-84
2022/08/04 00:21:59;;;;;;;9.05;7.80;;;22.00;99.90;;;;;;4980958;28;20219;-83
2022/08/04 00:24:48;;;;;;;12.70;8.30;;;22.10;99.90;;;;;;4983751;28;20226;-84
2022/08/04 00:27:38;;;;;;;9.57;7.80;;;22.00;99.90;;;;;;4984847;28;20679;-84
2022/08/04 00:30:28;;;;;;;8.57;7.72;;;21.90;99.90;;;;;;4983590;28;20594;-85
2022/08/04 00:33:20;;;;;;;9.10;8.13;;;21.90;99.90;;;;;;4982339;28;20361;-84
2022/08/04 00:36:11;;;;;;;9.75;8.75;;;22.00;99.90;;;;;;4979530;28;20226;-85
2022/08/04 00:39:00;;;;;;;8.98;8.05;;;22.00;99.90;;;;;;4977666;28;20219;-84
2022/08/04 00:42:19;;;;;;;10.15;7.95;;;22.10;99.90;;;;;;4983849;28;20318;-84
2022/08/04 00:45:30;;;;;;;10.45;7.95;;;22.00;99.90;;;;;;4980855;28;20284;-85
2022/08/04 00:48:54;;;;;;;9.63;8.10;;;22.00;99.90;;;;;;4979876;28;20231;-85
2022/08/04 00:51:49;;;;;;;11.18;7.97;;;21.90;99.90;;;;;;4980719;28;20229;-83
2022/08/04 00:55:10;;;;;;;9.65;7.68;;;21.90;99.90;;;;;;5008004;28;20233;-83
2022/08/04 00:58:27;;;;;;;11.50;8.10;;;21.90;99.90;;;;;;4996903;28;20226;-84
2022/08/04 01:01:31;;;;;;;8.30;7.50;;;22.00;99.90;;;;;;5009313;28;20228;-84
2022/08/04 01:04:36;;;;;;;10.45;7.70;;;21.90;99.90;;;;;;4985467;28;20330;-84
2022/08/04 01:07:41;;;;;;;8.85;8.05;;;22.00;99.90;;;;;;4977058;28;20226;-84
2022/08/04 01:10:41;;;;;;;9.10;7.55;;;21.70;99.90;;;;;;4980342;28;20571;-85
2022/08/04 01:13:51;;;;;;;8.55;7.75;;;21.70;99.90;;;;;;4980147;28;20321;-86
2022/08/04 01:16:50;;;;;;;9.38;8.27;;;21.80;99.90;;;;;;4978516;28;20602;-84
2022/08/04 01:19:54;;;;;;;8.10;7.30;;;21.60;99.90;;;;;;4981333;28;20242;-84
2022/08/04 01:23:16;;;;;;;14.07;8.18;;;21.60;99.90;;;;;;4995072;28;20788;-84
2022/08/04 01:26:37;;;;;;;10.63;8.77;;;21.60;99.90;;;;;;4982129;28;20578;-85
2022/08/04 01:29:49;;;;;;;8.75;7.70;;;21.60;99.90;;;;;;4975053;28;20219;-86
2022/08/04 01:32:40;;;;;;;7.65;6.90;;;21.70;99.90;;;;;;4979165;28;20263;-87
2022/08/04 01:35:36;;;;;;;11.15;8.07;;;21.70;99.90;;;;;;4979055;28;20234;-86
2022/08/04 01:38:36;;;;;;;10.30;7.32;;;21.60;99.90;;;;;;4991861;28;20223;-85
2022/08/04 01:41:25;;;;;;;8.40;7.53;;;21.60;99.90;;;;;;4979618;28;20235;-85
2022/08/04 01:44:23;;;;;;;8.23;7.32;;;21.60;99.90;;;;;;4981124;28;20579;-86
2022/08/04 01:47:16;;;;;;;8.73;7.85;;;21.50;99.90;;;;;;4981509;28;20322;-85
2022/08/04 01:50:07;;;;;;;11.13;7.97;;;21.50;99.90;;;;;;4977928;28;20215;-86
2022/08/04 01:52:56;;;;;;;8.50;7.32;;;21.50;99.90;;;;;;4984296;28;20222;-84
2022/08/04 01:55:46;;;;;;;7.95;7.15;;;21.50;99.90;;;;;;4979410;28;20223;-85
2022/08/04 01:58:42;;;;;;;7.78;7.07;;;21.60;99.90;;;;;;4978514;28;20222;-84
2022/08/04 02:01:36;;;;;;;8.52;6.50;;;21.50;99.90;;;;;;4992925;28;20824;-85
2022/08/04 02:04:26;;;;;;;8.88;7.97;;;21.40;99.90;;;;;;4979340;28;20222;-85
2022/08/04 02:07:26;;;;;;;8.90;6.93;;;21.50;99.90;;;;;;4981034;28;20223;-84
2022/08/04 02:10:27;;;;;;;7.10;6.40;;;21.40;99.90;;;;;;4981090;28;20226;-85
2022/08/04 02:13:21;;;;;;;10.52;7.25;;;21.40;99.90;;;;;;4980859;28;20674;-84
2022/08/04 02:16:28;;;;;;;8.52;6.95;;;21.40;99.90;;;;;;4981227;28;20310;-84
2022/08/04 02:19:29;;;;;;;9.88;6.63;;;21.40;99.90;;;;;;4982684;28;20214;-85
2022/08/04 02:22:22;;;;;;;11.05;7.53;;;21.40;99.90;;;;;;4993590;28;20244;-84
2022/08/04 02:25:12;;;;;;;10.43;7.57;;;21.20;99.90;;;;;;4979207;28;20275;-85
2022/08/04 02:28:12;;;;;;;8.48;7.40;;;21.10;99.90;;;;;;4978262;28;21323;-84
2022/08/04 02:31:14;;;;;;;9.13;7.10;;;21.10;99.90;;;;;;4981059;28;20219;-85
2022/08/04 02:34:08;;;;;;;8.30;7.50;;;21.00;99.90;;;;;;4981605;28;20226;-83
2022/08/04 02:36:58;;;;;;;11.77;7.22;;;21.10;99.90;;;;;;4981228;28;20737;-84
2022/08/04 02:39:52;;;;;;;12.50;7.32;;;21.20;99.90;;;;;;4975556;28;20558;-84
2022/08/04 02:42:41;;;;;;;12.43;7.07;;;21.10;99.90;;;;;;4978530;28;20380;-84
2022/08/04 02:45:35;;;;;;;9.13;7.53;;;21.00;99.90;;;;;;4989547;28;21154;-84
2022/08/04 02:48:26;;;;;;;8.63;7.30;;;21.10;99.90;;;;;;4980004;28;20802;-84
2022/08/04 02:51:23;;;;;;;12.32;7.50;;;21.00;99.90;;;;;;4979928;28;20231;-88
2022/08/04 02:54:11;;;;;;;9.80;7.03;;;21.10;99.90;;;;;;4982606;28;20222;-83
2022/08/04 02:57:02;;;;;;;7.45;6.75;;;21.10;99.90;;;;;;4982292;28;21071;-84
2022/08/04 03:00:07;;;;;;;8.05;6.72;;;21.10;99.90;;;;;;4983534;28;20226;-85
2022/08/04 03:03:06;;;;;;;10.30;6.80;;;21.10;99.90;;;;;;4983677;28;20220;-84
2022/08/04 03:06:16;;;;;;;9.40;7.00;;;21.10;99.90;;;;;;4984639;28;20517;-85
2022/08/04 03:09:34;;;;;;;8.95;6.50;;;21.20;99.90;;;;;;4982245;28;20342;-85
2022/08/04 03:12:55;;;;;;;8.88;7.00;;;21.10;99.90;;;;;;4981420;28;20227;-85
2022/08/04 03:16:00;;;;;;;7.93;7.15;;;21.10;99.90;;;;;;4984521;28;20708;-85
2022/08/04 03:19:31;;;;;;;9.55;7.15;;;20.90;99.90;;;;;;4991376;28;20625;-85
2022/08/04 03:22:59;;;;;;;9.35;7.22;;;21.00;99.90;;;;;;4978229;28;20230;-85
2022/08/04 03:26:35;;;;;;;9.98;7.20;;;20.90;99.90;;;;;;4979333;28;20219;-85
2022/08/04 03:30:03;;;;;;;9.75;7.32;;;20.80;99.90;;;;;;4983649;28;20231;-85
2022/08/04 03:33:09;;;;;;;7.95;7.18;;;20.90;99.90;;;;;;4982811;28;20237;-85
2022/08/04 03:36:32;;;;;;;9.07;7.30;;;20.90;99.90;;;;;;4978776;28;20225;-85
2022/08/04 03:39:39;;;;;;;8.63;7.70;;;20.90;99.90;;;;;;4984255;28;20220;-83
2022/08/04 03:42:49;;;;;;;8.75;7.00;;;21.00;99.90;;;;;;4994743;28;20227;-84
2022/08/04 03:46:09;;;;;;;10.40;7.07;;;21.00;99.90;;;;;;4967150;28;20686;-84
2022/08/04 03:49:45;;;;;;;9.85;7.45;;;21.00;99.90;;;;;;4963555;28;20231;-84
2022/08/04 03:53:10;;;;;;;8.40;7.50;;;21.00;99.90;;;;;;4955874;28;20218;-84
2022/08/04 03:56:33;;;;;;;9.35;7.35;;;21.10;99.90;;;;;;4995045;28;20216;-83
2022/08/04 04:00:00;;;;;;;8.32;7.28;;;21.00;99.90;;;;;;4985248;28;20223;-85
2022/08/04 04:03:38;;;;;;;10.13;7.07;;;21.10;99.90;;;;;;4978683;28;20218;-83
2022/08/04 04:07:01;;;;;;;11.05;7.63;;;21.00;99.90;;;;;;4979243;28;20903;-84
2022/08/04 04:10:24;;;;;;;9.25;7.53;;;21.00;99.90;;;;;;4977877;28;20278;-84
2022/08/04 04:13:43;;;;;;;9.15;7.65;;;21.10;99.90;;;;;;4982036;28;20257;-84
2022/08/04 04:16:44;;;;;;;10.75;7.85;;;21.00;99.90;;;;;;4996313;28;20226;-84
2022/08/04 04:20:10;;;;;;;11.60;8.43;;;21.00;99.90;;;;;;4991773;28;20753;-84
2022/08/04 04:23:12;;;;;;;11.30;8.55;;;21.00;99.90;;;;;;4953152;28;20226;-79
2022/08/04 04:26:30;;;;;;;9.45;8.60;;;20.90;99.90;;;;;;4981505;28;20223;-84
2022/08/04 04:29:48;;;;;;;12.23;8.57;;;20.80;99.90;;;;;;4981659;28;20234;-85
2022/08/04 04:32:56;;;;;;;9.32;7.95;;;20.90;99.90;;;;;;4983492;28;20222;-84
2022/08/04 04:35:59;;;;;;;10.57;8.90;;;20.90;99.90;;;;;;4980264;28;20594;-84
2022/08/04 04:39:10;;;;;;;10.65;9.10;;;20.90;99.90;;;;;;4980683;28;20227;-85
2022/08/04 04:42:16;;;;;;;10.70;8.77;;;20.80;99.90;;;;;;4982533;28;21000;-81
2022/08/04 04:45:22;;;;;;;11.20;8.70;;;20.90;99.90;;;;;;4977901;28;20223;-83
2022/08/04 04:48:30;;;;;;;14.20;8.55;;;20.90;99.90;;;;;;4981639;28;20223;-84
2022/08/04 04:51:25;;;;;;;8.95;8.05;;;21.00;99.90;;;;;;4976606;28;20222;-84
2022/08/04 04:54:24;;;;;;;11.63;9.02;;;21.10;99.90;;;;;;4982538;28;20222;-84
2022/08/04 04:57:17;;;;;;;10.73;9.02;;;21.30;99.90;;;;;;4990285;28;20227;-84
2022/08/04 05:00:09;;;;;;;10.05;7.43;;;21.20;99.90;;;;;;4977190;28;20322;-83
2022/08/04 05:03:23;;;;;;;10.68;8.45;;;21.20;99.90;;;;;;4980389;28;20227;-83
2022/08/04 05:06:26;;;;;;;9.45;8.45;;;21.30;99.90;;;;;;4981669;28;20211;-82
2022/08/04 05:09:39;;;;;;;13.30;7.82;;;21.30;99.90;;;;;;4984869;28;20223;-82
2022/08/04 05:12:51;;;;;;;10.85;8.02;;;21.50;99.90;;;;;;4979580;28;20238;-84
2022/08/04 05:16:05;;;;;;;9.85;8.35;;;21.60;99.90;;;;;;4979496;28;20257;-84
2022/08/04 05:19:03;;;;;;;11.50;7.88;;;21.70;99.90;;;;;;4981969;28;20250;-84
2022/08/04 05:22:00;;;;;;;10.13;8.32;;;21.80;99.90;;;;;;4979148;28;20696;-84
2022/08/04 05:24:52;;;;;;;10.60;8.02;;;21.90;99.90;;;;;;4983203;28;20218;-85
2022/08/04 05:27:49;;;;;;;9.02;7.75;;;22.10;99.90;;;;;;4996549;28;20226;-83
2022/08/04 05:30:47;;;;;;;13.38;7.63;;;22.00;99.90;;;;;;4980822;28;20237;-84
2022/08/04 05:33:40;;;;;;;14.45;7.88;;;22.10;99.90;;;;;;4979816;28;20231;-83
2022/08/04 05:36:34;;;;;;;12.50;7.03;;;22.30;99.90;;;;;;4982381;28;20226;-84
2022/08/04 05:39:34;;;;;;;12.55;7.20;;;22.50;99.90;;;;;;4981122;28;20223;-83
2022/08/04 05:42:23;;;;;;;14.75;7.07;;;22.60;99.90;;;;;;4978398;28;20223;-82
2022/08/04 05:45:13;;;;;;;14.77;8.15;;;22.70;99.90;;;;;;4980039;28;20218;-87
2022/08/04 05:48:02;;;;;;;19.60;8.07;;;22.70;99.90;;;;;;4995112;28;20223;-87
2022/08/04 05:50:52;;;;;;;14.73;6.93;;;22.70;99.90;;;;;;4983280;28;20724;-87
2022/08/04 05:53:48;;;;;;;11.45;7.20;;;22.80;99.90;;;;;;4981050;28;20306;-90
2022/08/04 05:56:37;;;;;;;14.38;7.32;;;22.90;99.90;;;;;;4995940;28;20318;-87
2022/08/04 05:59:27;;;;;;;12.32;7.53;;;22.90;99.90;;;;;;4984896;28;20237;-88
2022/08/04 06:02:19;;;;;;;13.32;7.22;;;23.00;99.90;;;;;;4985872;28;20219;-88
2022/08/04 06:05:13;;;;;;;17.58;6.47;;;23.60;99.90;;;;;;4986239;28;20704;-83
2022/08/04 06:08:02;;;;;;;11.27;6.82;;;23.20;99.90;;;;;;4990022;28;20559;-90
2022/08/04 06:11:05;;;;;;;12.52;6.80;;;23.20;99.90;;;;;;4985463;28;20317;-92
2022/08/04 06:13:58;;;;;;;13.70;6.68;;;23.90;99.90;;;;;;4985184;28;20856;-88
2022/08/04 06:16:49;;;;;;;12.10;7.90;;;24.10;99.90;;;;;;4984881;28;20223;-88
2022/08/04 06:19:45;;;;;;;11.70;6.50;;;23.40;99.90;;;;;;4987178;28;20230;-89
2022/08/04 06:22:56;;;;;;;9.32;6.70;;;23.40;99.90;;;;;;4991299;28;20218;-90
2022/08/04 06:25:50;;;;;;;12.95;6.75;;;23.60;99.90;;;;;;4993311;28;20234;-95
2022/08/04 06:28:41;;;;;;;11.43;6.78;;;23.40;99.90;;;;;;4994135;28;20702;-92
2022/08/04 06:31:42;;;;;;;7.50;6.38;;;23.30;99.90;;;;;;4994353;28;20233;-96
2022/08/04 06:34:55;;;;;;;9.25;7.05;;;23.30;99.90;;;;;;4994822;28;20234;-94
2022/08/04 06:37:46;;;;;;;8.88;6.20;;;23.30;99.90;;;;;;4990230;28;20230;-84
2022/08/04 06:40:36;;;;;;;11.38;6.13;;;23.40;99.90;;;;;;4986910;28;20674;-88
2022/08/04 06:43:26;;;;;;;11.77;6.13;;;23.40;99.90;;;;;;5000456;28;20226;-89
2022/08/04 06:46:17;;;;;;;13.93;6.28;;;23.40;99.90;;;;;;4991766;28;20281;-92
2022/08/04 06:49:06;;;;;;;11.68;6.25;;;23.60;99.90;;;;;;4992030;28;20233;-96
2022/08/04 06:51:57;;;;;;;10.15;5.93;;;23.60;99.90;;;;;;4989707;28;20705;-94
2022/08/04 06:54:47;;;;;;;8.52;5.25;;;23.60;99.90;;;;;;4993122;28;20559;-94
2022/08/04 06:57:37;;;;;;;8.48;5.55;;;23.70;99.90;;;;;;5002454;28;20227;-86
2022/08/04 07:00:27;;;;;;;12.75;5.75;;;24.00;99.90;;;;;;5004581;28;20303;-90
2022/08/04 07:03:17;;;;;;;11.88;5.63;;;24.10;99.90;;;;;;4988825;28;20238;-89
2022/08/04 07:06:07;;;;;;;14.93;5.72;;;24.20;99.90;;;;;;5004043;28;20234;-90
2022/08/04 07:09:03;;;;;;;15.45;5.75;;;24.50;99.90;;;;;;4992267;28;20218;-88
2022/08/04 07:11:54;;;;;;;9.95;5.05;;;24.70;99.90;;;;;;4993089;28;20542;-90
2022/08/04 07:14:43;;;;;;;13.02;4.70;;;24.90;99.90;;;;;;4990421;28;20215;-89
2022/08/04 07:17:33;;;;;;;14.30;5.40;;;25.10;99.90;;;;;;4988237;28;20229;-88
2022/08/04 07:20:22;;;;;;;10.98;4.45;;;25.30;99.90;;;;;;4994628;28;20215;-94
2022/08/04 07:23:24;;;;;;;8.90;4.40;;;25.50;99.90;;;;;;4992989;28;20357;-92
2022/08/04 07:26:16;;;;;;;11.63;4.45;;;25.80;99.90;;;;;;4992010;28;20219;-92
2022/08/04 07:29:04;;;;;;;17.55;4.53;;;26.00;99.90;;;;;;4993517;28;20697;-94
2022/08/04 07:31:54;;;;;;;9.43;4.03;;;26.30;99.90;;;;;;4994846;28;20231;-96
2022/08/04 07:34:43;;;;;;;9.25;3.80;;;26.60;99.90;;;;;;4995715;28;20591;-96
2022/08/04 07:37:37;;;;;;;5.70;3.47;;;26.70;99.90;;;;;;4992722;28;20234;-96
2022/08/04 07:40:28;;;;;;;11.63;3.95;;;26.80;99.90;;;;;;5001534;28;20264;-95
2022/08/04 07:43:18;;;;;;;10.18;3.60;;;27.10;99.90;;;;;;5009800;28;20215;-90
2022/08/04 07:46:06;;;;;;;7.35;3.47;;;27.30;99.90;;;;;;5005964;28;20207;-89
2022/08/04 07:48:55;;;;;;;11.00;3.72;;;27.50;99.90;;;;;;5007739;28;20238;-88
2022/08/04 07:51:44;;;;;;;5.15;3.55;;;27.80;99.90;;;;;;4997996;28;20223;-94
2022/08/04 07:54:33;;;;;;;9.95;3.65;;;27.90;99.90;;;;;;5006484;28;20585;-89
2022/08/04 07:57:22;;;;;;;8.98;3.70;;;28.10;99.90;;;;;;5013062;28;20230;-90
2022/08/04 08:00:30;;;;;;;10.02;3.97;;;28.50;99.90;;;;;;5005286;28;20213;-95
2022/08/04 08:03:20;;;;;;;14.38;4.88;;;28.70;99.90;;;;;;4996714;28;20339;-95
2022/08/04 08:06:09;;;;;;;7.55;3.90;;;28.80;99.90;;;;;;4987351;28;21861;-89
2022/08/04 08:09:20;;;;;;;7.50;3.40;;;28.80;99.00;;;;;;4988552;28;20226;-89
2022/08/04 08:12:10;;;;;;;5.05;3.70;;;29.10;97.60;;;;;;4991100;28;20261;-93
2022/08/04 08:15:19;;;;;;;9.43;3.72;;;29.50;96.60;;;;;;5004286;28;20234;-95
2022/08/04 08:18:09;;;;;;;6.28;3.25;;;29.90;94.40;;;;;;4992525;28;20238;-92
2022/08/04 08:20:58;;;;;;;3.60;3.30;;;30.10;93.60;;;;;;4991198;28;20223;-87
2022/08/04 08:23:48;;;;;;;5.60;3.58;;;30.10;92.90;;;;;;4985000;28;20219;-89
2022/08/04 08:26:36;;;;;;;5.53;3.63;;;30.20;92.50;;;;;;4993267;28;20238;-94
2022/08/04 08:29:26;;;;;;;6.57;3.40;;;30.70;91.30;;;;;;4986699;28;20228;-94
2022/08/04 08:32:15;;;;;;;6.18;3.00;;;30.80;90.70;;;;;;5001679;28;20227;-96
2022/08/04 08:35:06;;;;;;;5.95;3.97;;;30.90;87.90;;;;;;4987711;28;20238;-92
2022/08/04 08:38:02;;;;;;;5.38;3.60;;;31.10;87.90;;;;;;4994013;28;20568;-91
2022/08/04 08:40:56;;;;;;;11.27;3.53;;;31.40;86.10;;;;;;4990369;28;20697;-96
2022/08/04 08:44:04;;;;;;;7.65;3.25;;;31.50;83.80;;;;;;4979697;28;20292;-93
2022/08/04 08:47:06;;;;;;;9.65;3.20;;;31.20;86.00;;;;;;4992234;28;20241;-92
2022/08/04 08:50:34;;;;;;;4.88;3.33;;;31.60;80.20;;;;;;4993507;28;20345;-87
2022/08/04 08:53:47;;;;;;;7.93;3.25;;;31.50;78.80;;;;;;4927364;29;20224;-95
2022/08/04 08:56:44;;;;;;;5.25;3.03;;;32.10;76.40;;;;;;5006480;28;20214;-94
2022/08/04 08:59:46;;;;;;;6.75;3.30;;;32.50;77.90;;;;;;5005315;28;20222;-94
2022/08/04 09:03:05;;;;;;;5.80;3.22;;;32.80;74.80;;;;;;4992690;28;20609;-94
2022/08/04 09:06:36;;;;;;;4.50;3.03;;;32.30;76.30;;;;;;4995710;28;20222;-92
2022/08/04 09:09:52;;;;;;;7.38;3.22;;;32.50;77.40;;;;;;4996079;28;20311;-96
2022/08/04 09:12:50;;;;;;;3.00;2.80;;;32.90;73.40;;;;;;5007032;28;20222;-95
2022/08/04 09:15:45;;;;;;;8.43;3.33;;;32.90;71.60;;;;;;5011673;28;20233;-95
2022/08/04 09:18:47;;;;;;;4.75;3.13;;;33.10;72.30;;;;;;5010103;28;20202;-94
2022/08/04 09:21:39;;;;;;;3.90;2.97;;;33.50;70.90;;;;;;5005636;28;20289;-94
2022/08/04 09:24:43;;;;;;;5.63;3.40;;;33.60;70.10;;;;;;4991722;28;20230;-92
2022/08/04 09:27:42;;;;;;;3.47;3.15;;;33.30;70.30;;;;;;4995032;28;20242;-92
2022/08/04 09:30:38;;;;;;;6.18;2.70;;;33.80;68.30;;;;;;4994152;28;20300;-94
2022/08/04 09:33:39;;;;;;;9.80;2.92;;;34.10;67.30;;;;;;4989075;28;20230;-96
2022/08/04 09:36:39;;;;;;;5.13;2.70;;;34.60;66.00;;;;;;4993071;28;20234;-92
2022/08/04 09:39:36;;;;;;;5.95;2.85;;;34.70;63.40;;;;;;4989574;28;20226;-94
2022/08/04 09:42:41;;;;;;;3.10;2.63;;;34.80;64.40;;;;;;4987511;28;20689;-90
2022/08/04 09:45:36;;;;;;;5.78;3.10;;;35.30;64.30;;;;;;4986645;28;20230;-91
2022/08/04 09:48:39;;;;;;;8.00;3.10;;;35.60;62.70;;;;;;4989919;28;20237;-92
2022/08/04 09:51:43;;;;;;;6.95;3.40;;;35.60;61.60;;;;;;4984661;28;20246;-86
2022/08/04 09:54:56;;;;;;;4.47;3.03;;;35.80;60.00;;;;;;4980441;28;20246;-89
2022/08/04 09:57:53;;;;;;;5.47;3.00;;;36.50;59.50;;;;;;4999808;28;20230;-90
2022/08/04 10:00:48;;;;;;;3.38;2.97;;;36.90;60.20;;;;;;4976170;28;20590;-86
2022/08/04 10:03:43;;;;;;;3.30;3.00;;;37.00;57.50;;;;;;4979262;28;20242;-84
2022/08/04 10:07:08;;;;;;;5.65;3.33;;;38.10;57.00;;;;;;4981561;28;20219;-95
2022/08/04 10:10:21;;;;;;;7.25;3.15;;;38.60;56.10;;;;;;4950389;28;20227;-87
2022/08/04 10:13:29;;;;;;;3.80;2.92;;;38.90;55.00;;;;;;4982103;28;20238;-87
2022/08/04 10:16:32;;;;;;;3.97;3.28;;;38.80;55.30;;;;;;4980845;28;20222;-86
2022/08/04 10:19:26;;;;;;;3.90;2.90;;;37.90;53.30;;;;;;4975886;28;20688;-86
2022/08/04 10:22:20;;;;;;;3.45;3.03;;;38.20;54.80;;;;;;4981818;28;20229;-89
2022/08/04 10:25:30;;;;;;;4.53;3.30;;;38.70;54.50;;;;;;4978380;28;20228;-85
2022/08/04 10:28:44;;;;;;;13.68;3.60;;;39.10;54.00;;;;;;4980948;28;20226;-85
2022/08/04 10:31:35;;;;;;;4.53;3.28;;;40.00;52.90;;;;;;4979949;28;20780;-88
2022/08/04 10:34:28;;;;;;;4.43;3.53;;;40.20;51.90;;;;;;4986254;28;20225;-85
2022/08/04 10:37:21;;;;;;;3.63;3.33;;;40.80;51.10;;;;;;4979275;28;20231;-86
2022/08/04 10:40:36;;;;;;;4.93;3.20;;;40.90;50.40;;;;;;4996328;28;20272;-85
2022/08/04 10:43:38;;;;;;;4.88;3.13;;;41.30;49.20;;;;;;4981544;28;20226;-86
2022/08/04 10:46:32;;;;;;;5.45;3.60;;;41.70;50.10;;;;;;4979062;28;20308;-86
2022/08/04 10:49:23;;;;;;;4.35;3.40;;;41.80;48.90;;;;;;4979011;28;20234;-87
2022/08/04 10:52:22;;;;;;;4.20;3.20;;;42.20;49.20;;;;;;4992704;28;20223;-87
2022/08/04 10:55:17;;;;;;;3.92;3.33;;;42.30;47.40;;;;;;4977407;28;20233;-87
2022/08/04 10:58:13;;;;;;;5.05;3.10;;;42.10;47.80;;;;;;4977891;28;20230;-87
2022/08/04 11:01:08;;;;;;;3.33;2.97;;;41.60;48.20;;;;;;4977612;28;20874;-87
2022/08/04 11:04:26;;;;;;;10.05;3.60;;;41.60;48.50;;;;;;4977694;28;20234;-87
2022/08/04 11:07:16;;;;;;;5.25;3.20;;;42.20;48.00;;;;;;4978822;28;20943;-88
2022/08/04 11:10:07;;;;;;;4.65;2.97;;;41.90;47.20;;;;;;4985430;28;20222;-87
2022/08/04 11:13:01;;;;;;;3.00;2.65;;;42.10;46.50;;;;;;4992051;28;20230;-92
2022/08/04 11:15:54;;;;;;;4.38;2.80;;;42.20;47.90;;;;;;4985131;28;20230;-91
2022/08/04 11:18:49;;;;;;;6.18;3.22;;;42.80;47.10;;;;;;4988270;28;20648;-90
2022/08/04 11:21:44;;;;;;;4.60;3.03;;;42.60;46.50;;;;;;4992356;28;20222;-92
2022/08/04 11:24:40;;;;;;;3.10;2.80;;;42.90;47.20;;;;;;5000278;28;20233;-92
2022/08/04 11:27:35;;;;;;;6.47;3.17;;;43.20;44.70;;;;;;4994463;28;20233;-90
2022/08/04 11:30:28;;;;;;;2.97;2.65;;;43.50;45.00;;;;;;4993086;28;20230;-88
2022/08/04 11:33:26;;;;;;;3.35;3.00;;;42.90;44.60;;;;;;4986359;28;20218;-94
2022/08/04 11:36:22;;;;;;;5.10;3.10;;;43.50;45.00;;;;;;5001659;28;20326;-96
2022/08/04 11:39:15;;;;;;;3.33;3.03;;;43.90;44.30;;;;;;4991732;28;20234;-93
2022/08/04 11:42:13;;;;;;;2.80;2.60;;;43.90;44.00;;;;;;4993709;28;20229;-90
2022/08/04 11:45:03;;;;;;;9.88;3.08;;;;;;;;;;5007777;28;20241;-96
2022/08/04 11:47:59;;;;;;;2.90;2.70;;;44.30;42.70;;;;;;4993556;28;20206;-93
2022/08/04 11:50:52;;;;;;;9.30;3.30;;;45.00;43.20;;;;;;4992424;28;20227;-93
2022/08/04 11:53:44;;;;;;;20.17;17.40;;;46.40;42.30;;;;;;4992311;28;20789;-86
2022/08/04 11:56:33;;;;;;;3.53;2.97;;;46.80;41.40;;;;;;4973750;28;20235;-85
2022/08/04 11:59:27;;;;;;;4.55;2.90;;;45.10;43.00;;;;;;4986243;28;20237;-96
2022/08/04 12:02:41;;;;;;;6.00;2.80;;;46.10;42.00;;;;;;4994519;28;20760;-91
2022/08/04 12:05:33;;;;;;;3.00;2.70;;;46.00;41.30;;;;;;4995080;28;20222;-96
2022/08/04 12:08:40;;;;;;;6.50;2.80;;;46.70;41.30;;;;;;4994572;28;20221;-96
2022/08/04 12:11:42;;;;;;;3.20;2.70;;;47.40;40.00;;;;;;4999552;28;20234;-92
2022/08/04 12:14:40;;;;;;;4.72;3.00;;;48.00;39.00;;;;;;4989578;28;20226;-94
2022/08/04 12:17:35;;;;;;;6.10;2.90;;;47.20;39.00;;;;;;5002777;28;20275;-91
2022/08/04 12:20:45;;;;;;;3.20;2.90;;;47.40;38.90;;;;;;4993176;28;20230;-92
2022/08/04 12:23:40;;;;;;;4.45;2.67;;;48.10;38.80;;;;;;4990533;28;20214;-89
2022/08/04 12:26:34;;;;;;;3.60;2.80;;;48.30;37.80;;;;;;4986789;28;20218;-92
2022/08/04 12:29:25;;;;;;;6.72;2.67;;;48.00;38.20;;;;;;4996995;28;20233;-88
2022/08/04 12:32:20;;;;;;;3.17;2.88;;;45.20;39.90;;;;;;4984787;28;20227;-89
2022/08/04 12:35:19;;;;;;;3.05;2.75;;;47.40;40.10;;;;;;4984361;28;20760;-88
2022/08/04 12:38:13;;;;;;;5.05;2.70;;;47.30;38.80;;;;;;4980945;28;20222;-89
2022/08/04 12:41:03;;;;;;;13.88;3.25;;;43.60;39.10;;;;;;4986207;28;20230;-90
2022/08/04 12:43:54;;;;;;;5.90;3.20;;;40.30;43.00;;;;;;4988146;28;20226;-95
2022/08/04 12:46:46;;;;;;;5.57;2.97;;;38.30;46.10;;;;;;4992993;28;20306;-92
2022/08/04 12:49:37;;;;;;;3.20;2.85;;;36.80;47.20;;;;;;4993163;28;20226;-96
2022/08/04 12:52:26;;;;;;;9.90;3.00;;;35.80;49.60;;;;;;4983676;28;20226;-91
2022/08/04 12:55:36;;;;;;;3.92;3.13;;;35.30;50.30;;;;;;4982939;28;20218;-92
2022/08/04 12:58:28;;;;;;;7.45;3.40;;;34.90;50.90;;;;;;5002872;28;20235;-96
2022/08/04 13:01:31;;;;;;;3.42;3.13;;;34.50;52.40;;;;;;4988533;28;20218;-90
2022/08/04 13:04:43;;;;;;;3.65;3.35;;;34.20;53.50;;;;;;5001416;28;20574;-93
2022/08/04 13:07:43;;;;;;;5.05;3.72;;;34.10;53.00;;;;;;4992263;28;20748;-93
2022/08/04 13:10:39;;;;;;;3.53;3.00;;;33.50;53.50;;;;;;5000341;28;20233;-96
2022/08/04 13:13:34;;;;;;;4.53;3.15;;;33.10;53.60;;;;;;4996133;28;20232;-96
2022/08/04 13:16:30;;;;;;;4.05;3.38;;;33.10;54.10;;;;;;4991092;28;20237;-95
2022/08/04 13:19:21;;;;;;;8.95;3.55;;;33.00;55.00;;;;;;4999552;28;20322;-96
2022/08/04 13:22:10;;;;;;;6.57;3.33;;;;;;;;;;5007703;28;20229;-96
2022/08/04 13:25:00;;;;;;;5.00;3.40;;;32.80;55.40;;;;;;5001754;28;20230;-89
2022/08/04 13:28:14;;;;;;;4.18;3.67;;;32.70;55.50;;;;;;4995299;28;20228;-95
2022/08/04 13:31:07;;;;;;;6.05;3.30;;;32.40;54.90;;;;;;4992258;28;20234;-96
2022/08/04 13:34:06;;;;;;;5.10;3.55;;;32.40;55.80;;;;;;4983208;28;20226;-94
2022/08/04 13:37:07;;;;;;;7.60;3.10;;;32.20;54.50;;;;;;4992706;28;20210;-93
2022/08/04 13:39:58;;;;;;;7.20;3.58;;;31.90;55.80;;;;;;4988066;28;20234;-95
2022/08/04 13:42:49;;;;;;;5.13;3.53;;;32.30;56.60;;;;;;5006847;28;20229;-94
2022/08/04 13:45:40;;;;;;;6.25;3.33;;;32.10;57.50;;;;;;4992619;28;20248;-84
2022/08/04 13:48:34;;;;;;;5.15;3.60;;;31.80;56.70;;;;;;4992918;28;20218;-93
2022/08/04 13:51:25;;;;;;;7.57;3.35;;;31.70;56.80;;;;;;4985922;28;20218;-94
2022/08/04 13:54:39;;;;;;;4.68;3.72;;;31.80;56.40;;;;;;5004666;28;20222;-96
2022/08/04 13:57:32;;;;;;;3.55;3.13;;;31.50;56.80;;;;;;4997573;28;20230;-96
2022/08/04 14:00:23;;;;;;;5.07;3.30;;;31.50;56.70;;;;;;4994846;28;20222;-96
2022/08/04 14:03:25;;;;;;;6.60;3.33;;;31.10;56.00;;;;;;4993585;28;21032;-96
2022/08/04 14:06:18;;;;;;;3.83;3.42;;;31.10;56.60;;;;;;4998739;28;20232;-96
2022/08/04 14:09:13;;;;;;;5.35;3.50;;;31.30;57.60;;;;;;4997864;28;20210;-94
2022/08/04 14:12:07;;;;;;;4.93;3.22;;;31.30;58.00;;;;;;5007884;28;20230;-90
2022/08/04 14:15:38;;;;;;;7.45;3.58;;;31.00;57.80;;;;;;4992299;28;20222;-94
2022/08/04 14:18:47;;;;;;;6.32;3.90;;;30.70;56.90;;;;;;4993962;28;20210;-96
2022/08/04 14:21:37;;;;;;;8.45;3.58;;;30.80;57.80;;;;;;4996460;28;20685;-96
2022/08/04 14:24:27;;;;;;;5.53;3.38;;;30.80;57.90;;;;;;4994295;28;20233;-96
2022/08/04 14:27:16;;;;;;;5.15;3.50;;;30.70;58.20;;;;;;4995422;28;20222;-94
2022/08/04 14:30:05;;;;;;;9.25;3.60;;;30.80;58.40;;;;;;4992582;28;20709;-91
2022/08/04 14:32:55;;;;;;;9.70;5.10;;;30.70;59.10;;;;;;5006760;28;20233;-94
2022/08/04 14:35:56;;;;;;;5.00;3.45;;;30.70;57.30;;;;;;5007896;28;20202;-96
2022/08/04 14:38:50;;;;;;;4.30;3.25;;;30.80;58.30;;;;;;5001605;28;20238;-91
2022/08/04 14:41:47;;;;;;;4.75;3.60;;;30.60;57.80;;;;;;4995586;28;20265;-85
2022/08/04 14:44:54;;;;;;;3.78;3.30;;;30.70;59.00;;;;;;5002530;28;20202;-94
2022/08/04 14:47:45;;;;;;;5.10;3.28;;;30.70;58.70;;;;;;5037387;23;20281;-95
2022/08/04 14:50:42;;;;;;;3.65;3.35;;;30.60;57.10;;;;;;5058827;28;20224;-94
2022/08/04 14:53:31;;;;;;;4.57;2.97;;;30.60;58.10;;;;;;5049116;28;20727;-92
2022/08/04 14:56:21;;;;;;;6.85;3.28;;;30.50;57.10;;;;;;5046906;28;20238;-92
2022/08/04 14:59:41;;;;;;;6.57;3.15;;;30.40;57.00;;;;;;5058772;28;20215;-92
2022/08/04 15:02:47;;;;;;;5.35;3.20;;;30.30;57.40;;;;;;5051217;28;20224;-92
2022/08/04 15:05:38;;;;;;;7.60;3.38;;;30.30;57.90;;;;;;5060450;28;20231;-83
2022/08/04 15:08:47;;;;;;;5.65;3.28;;;30.00;57.80;;;;;;5062759;28;20231;-95
2022/08/04 15:11:38;;;;;;;4.50;3.30;;;29.90;58.00;;;;;;5047447;28;20313;-82
2022/08/04 15:14:31;;;;;;;5.75;3.33;;;30.20;58.60;;;;;;5062676;28;20252;-96
2022/08/04 15:17:25;;;;;;;4.00;3.58;;;30.20;60.80;;;;;;5051538;28;20216;-95
2022/08/04 15:20:18;;;;;;;3.50;3.20;;;30.10;58.20;;;;;;5045819;28;20224;-95
2022/08/04 15:23:07;;;;;;;7.65;3.30;;;30.00;59.40;;;;;;5049873;28;20221;-95
2022/08/04 15:26:02;;;;;;;4.05;3.28;;;30.10;59.40;;;;;;5036848;28;20255;-95
2022/08/04 15:28:58;;;;;;;4.88;3.33;;;30.00;58.80;;;;;;5064372;28;20247;-93
2022/08/04 15:31:48;;;;;;;4.22;3.33;;;30.10;60.50;;;;;;5050235;28;20220;-96